Time;durP1;ratioP1;P1;durP2;ratioP2;P2;SDS_P1;SDS_P2;PMS_P1;PMS_P2;Temp;Humidity;BMP_temperature;BMP_pressure;BME280_temperature;BME280_humidity;BME280_pressure;Samples;Min_cycle;Max_cycle;Signal;HPM_P1;HPM_P2
2022/10/05 00:00:53;;;;;;;13.87;7.40;;;;;;;11.22;97.59;101759.19;4997191;28;20211;-70
2022/10/05 00:03:21;;;;;;;11.93;8.13;;;;;;;11.27;97.75;101767.91;4996980;28;20187;-70
2022/10/05 00:05:47;;;;;;;10.07;7.77;;;;;;;11.28;97.61;101762.84;4996425;28;20212;-71
2022/10/05 00:08:23;;;;;;;11.87;7.67;;;;;;;11.30;97.77;101768.00;4996608;28;20235;-71
2022/10/05 00:10:49;;;;;;;12.00;8.40;;;;;;;11.30;97.78;101768.00;4998940;28;20671;-70
2022/10/05 00:13:21;;;;;;;12.73;8.23;;;;;;;11.35;97.66;101761.34;4992673;28;20200;-71
2022/10/05 00:15:47;;;;;;;9.77;8.20;;;;;;;11.35;97.57;101769.91;4995914;28;20195;-71
2022/10/05 00:18:16;;;;;;;15.70;8.53;;;;;;;11.35;97.76;101762.22;4996746;28;20532;-71
2022/10/05 00:20:42;;;;;;;14.83;8.27;;;;;;;11.34;97.29;101763.00;4999298;28;20210;-71
2022/10/05 00:23:15;;;;;;;12.07;8.00;;;;;;;11.38;97.03;101753.75;4996673;28;20557;-72
2022/10/05 00:25:40;;;;;;;11.90;7.60;;;;;;;11.38;97.07;101761.44;4999673;28;20187;-70
2022/10/05 00:28:15;;;;;;;12.37;8.40;;;;;;;11.42;97.17;101764.13;4997344;28;20230;-71
2022/10/05 00:30:40;;;;;;;10.37;7.30;;;;;;;11.44;96.99;101767.63;4998402;28;20607;-70
2022/10/05 00:33:05;;;;;;;13.10;7.40;;;;;;;11.46;97.15;101768.53;4994444;28;20192;-72
2022/10/05 00:35:34;;;;;;;13.53;7.33;;;;;;;11.47;96.90;101766.84;4997094;28;20219;-71
2022/10/05 00:38:00;;;;;;;12.63;7.10;;;;;;;11.47;97.23;101756.59;4995906;28;20184;-71
2022/10/05 00:40:35;;;;;;;15.23;7.43;;;;;;;11.50;96.89;101756.66;4997418;28;20355;-71
2022/10/05 00:43:37;;;;;;;10.90;7.50;;;;;;;11.52;96.78;101757.59;5009760;28;20211;-71
2022/10/05 00:46:16;;;;;;;10.33;6.80;;;;;;;11.51;96.71;101749.03;5004555;28;20194;-71
2022/10/05 00:48:57;;;;;;;12.40;7.43;;;;;;;11.53;96.87;101749.06;4998169;28;20710;-71
2022/10/05 00:51:24;;;;;;;10.40;7.20;;;;;;;11.53;96.36;101741.38;5000269;28;20751;-71
2022/10/05 00:54:22;;;;;;;12.47;7.77;;;;;;;11.55;96.40;101750.84;4999271;28;20187;-71
2022/10/05 00:57:02;;;;;;;9.47;7.80;;;;;;;11.56;96.69;101739.75;4977424;28;20202;-71
2022/10/05 00:59:39;;;;;;;12.10;7.40;;;;;;;11.59;96.61;101729.63;5014680;28;20219;-71
2022/10/05 01:02:15;;;;;;;13.77;7.03;;;;;;;11.62;96.64;101736.56;4988953;28;20184;-72
2022/10/05 01:04:43;;;;;;;11.27;7.23;;;;;;;11.64;96.41;101733.22;4994652;28;20187;-71
2022/10/05 01:07:27;;;;;;;11.07;7.90;;;;;;;11.69;96.28;101738.44;4996510;28;20179;-71
2022/10/05 01:10:25;;;;;;;9.27;7.10;;;;;;;11.73;96.09;101730.03;4994454;28;20208;-71
2022/10/05 01:13:18;;;;;;;12.57;7.07;;;;;;;11.75;95.81;101721.53;4999265;28;20290;-69
2022/10/05 01:15:53;;;;;;;11.53;7.03;;;;;;;11.77;95.54;101712.22;4995760;28;20270;-71
2022/10/05 01:18:25;;;;;;;13.80;6.70;;;;;;;11.79;95.44;101714.78;5000972;28;20610;-69
2022/10/05 01:21:18;;;;;;;11.83;7.43;;;;;;;11.79;95.62;101707.97;4993279;28;20695;-71
2022/10/05 01:24:03;;;;;;;11.03;7.57;;;;;;;11.82;95.32;101705.50;4985963;28;20191;-70
2022/10/05 01:26:51;;;;;;;10.53;6.60;;;;;;;11.84;95.38;101705.56;5002468;28;20190;-71
2022/10/05 01:29:18;;;;;;;12.43;7.30;;;;;;;11.85;95.19;101703.00;4992645;28;20920;-71
2022/10/05 01:32:19;;;;;;;10.73;7.00;;;;;;;11.87;94.93;101701.38;4989973;28;20235;-72
2022/10/05 01:34:50;;;;;;;11.37;6.53;;;;;;;11.87;94.92;101700.50;4997578;28;20214;-71
2022/10/05 01:37:31;;;;;;;14.83;7.63;;;;;;;11.90;94.39;101704.00;4997237;28;20210;-71
2022/10/05 01:40:09;;;;;;;10.93;6.40;;;;;;;11.91;94.48;101708.34;4999313;28;20219;-71
2022/10/05 01:43:01;;;;;;;13.03;6.83;;;;;;;11.92;94.25;101697.22;5003776;28;20183;-71
2022/10/05 01:45:45;;;;;;;11.50;6.80;;;;;;;11.91;93.91;101703.19;5000052;28;20210;-69
2022/10/05 01:48:11;;;;;;;13.43;6.73;;;;;;;11.92;94.18;101698.91;4991668;28;20681;-71
2022/10/05 01:51:01;;;;;;;9.50;6.53;;;;;;;11.93;93.97;101680.16;4999159;28;20263;-70
2022/10/05 01:53:37;;;;;;;12.53;6.53;;;;;;;11.94;93.90;101679.31;5004366;28;20805;-71
2022/10/05 01:56:27;;;;;;;10.60;6.63;;;;;;;11.94;94.15;101669.91;4994803;28;20183;-71
2022/10/05 01:59:14;;;;;;;11.60;6.13;;;;;;;11.94;93.57;101662.19;5005232;28;20191;-70
2022/10/05 02:02:09;;;;;;;8.57;5.73;;;;;;;11.99;93.77;101663.19;4999304;28;20199;-71
2022/10/05 02:04:44;;;;;;;10.13;6.70;;;;;;;12.01;93.21;101661.56;4995640;28;20191;-71
2022/10/05 02:07:17;;;;;;;10.77;6.90;;;;;;;12.01;93.32;101655.53;5004036;28;20201;-72
2022/10/05 02:09:52;;;;;;;6.33;5.67;;;;;;;12.04;93.25;101660.75;4992867;28;20231;-69
2022/10/05 02:12:21;;;;;;;7.17;5.70;;;;;;;12.04;93.05;101668.47;5002950;28;20325;-71
2022/10/05 02:14:52;;;;;;;11.23;6.27;;;;;;;12.06;93.07;101677.06;4994590;28;20191;-71
2022/10/05 02:17:24;;;;;;;9.30;6.20;;;;;;;12.08;92.77;101686.53;4988694;28;20258;-71
2022/10/05 02:19:56;;;;;;;7.63;5.70;;;;;;;12.07;93.04;101681.38;5003885;28;20215;-71
2022/10/05 02:22:29;;;;;;;8.20;6.03;;;;;;;12.07;93.13;101679.66;4993970;28;20187;-71
2022/10/05 02:24:58;;;;;;;9.27;6.30;;;;;;;12.07;92.57;101678.81;5005069;28;20188;-71
2022/10/05 02:27:31;;;;;;;7.80;5.77;;;;;;;12.08;93.34;101680.56;4997598;28;20602;-71
2022/10/05 02:30:05;;;;;;;8.97;5.73;;;;;;;12.06;92.93;101669.34;5001562;28;20211;-71
2022/10/05 02:32:43;;;;;;;9.73;6.17;;;;;;;12.06;93.19;101670.25;4990279;28;20191;-71
2022/10/05 02:35:15;;;;;;;9.93;5.90;;;;;;;12.06;92.96;101671.94;5002111;28;20593;-71
2022/10/05 02:38:07;;;;;;;9.90;5.67;;;;;;;12.03;93.15;101675.28;4992263;28;20274;-72
2022/10/05 02:40:48;;;;;;;8.53;6.23;;;;;;;12.03;93.31;101675.28;5011403;28;20211;-71
2022/10/05 02:43:17;;;;;;;9.30;5.97;;;;;;;12.02;92.93;101672.66;5002508;28;20210;-71
2022/10/05 02:45:58;;;;;;;9.50;6.20;;;;;;;12.00;93.28;101664.06;4994427;28;20188;-71
2022/10/05 02:48:47;;;;;;;8.83;5.70;;;;;;;12.00;93.48;101662.38;4995144;28;20230;-70
2022/10/05 02:51:27;;;;;;;7.53;5.93;;;;;;;12.00;93.19;101666.63;5001086;28;20211;-71
2022/10/05 02:54:21;;;;;;;7.03;5.73;;;;;;;12.00;93.57;101661.50;5005042;28;20808;-71
2022/10/05 02:56:47;;;;;;;10.07;6.13;;;;;;;11.99;93.54;101663.19;4993027;28;20562;-71
2022/10/05 02:59:35;;;;;;;12.60;6.73;;;;;;;11.98;93.49;101653.75;4997537;28;20226;-70
2022/10/05 03:02:42;;;;;;;8.17;6.17;;;;;;;11.99;93.55;101649.50;5008099;28;20315;-71
2022/10/05 03:05:34;;;;;;;9.03;6.17;;;;;;;11.97;93.73;101640.88;4990836;28;20272;-70
2022/10/05 03:08:06;;;;;;;8.97;5.93;;;;;;;11.98;93.63;101633.22;5003401;28;20192;-71
2022/10/05 03:10:42;;;;;;;11.43;6.53;;;;;;;11.97;94.03;101628.94;5009378;28;20215;-71
2022/10/05 03:13:26;;;;;;;10.80;7.00;;;;;;;11.99;93.97;101622.13;5007591;28;20184;-71
2022/10/05 03:15:56;;;;;;;9.23;6.63;;;;;;;12.00;94.21;101626.44;4997929;28;20203;-70
2022/10/05 03:18:22;;;;;;;10.97;7.33;;;;;;;12.01;93.80;101617.03;4996138;28;20198;-70
2022/10/05 03:21:03;;;;;;;8.73;6.83;;;;;;;12.02;93.77;101621.31;4996138;28;20207;-71
2022/10/05 03:23:58;;;;;;;10.17;7.10;;;;;;;12.03;94.00;101618.81;5000880;28;20191;-69
2022/10/05 03:26:35;;;;;;;13.63;7.53;;;;;;;12.02;94.22;101616.19;4967421;28;20239;-71
2022/10/05 03:29:27;;;;;;;10.63;7.00;;;;;;;12.01;94.36;101615.34;5004655;28;20195;-72
2022/10/05 03:31:58;;;;;;;9.37;6.87;;;;;;;12.02;94.50;101617.06;4996370;28;20320;-70
2022/10/05 03:34:43;;;;;;;12.73;7.43;;;;;;;12.03;94.59;101625.66;4994047;28;20196;-71
2022/10/05 03:37:15;;;;;;;10.90;7.30;;;;;;;12.06;94.74;101628.28;4997504;28;20190;-71
2022/10/05 03:39:51;;;;;;;11.40;6.93;;;;;;;12.06;94.64;101628.28;4991372;28;20326;-72
2022/10/05 03:42:52;;;;;;;9.73;7.03;;;;;;;12.05;94.52;101624.88;4998594;28;20669;-70
2022/10/05 03:45:35;;;;;;;9.83;7.10;;;;;;;12.03;94.94;101618.81;5000548;28;20195;-71
2022/10/05 03:48:13;;;;;;;8.70;7.13;;;;;;;12.05;94.56;101616.28;4997249;28;20180;-71
2022/10/05 03:50:44;;;;;;;8.13;6.97;;;;;;;12.06;94.72;101611.19;4988898;28;20649;-71
2022/10/05 03:53:16;;;;;;;9.17;6.13;;;;;;;12.06;94.43;101608.63;5005643;28;20196;-72
2022/10/05 03:55:55;;;;;;;11.23;6.97;;;;;;;12.05;94.92;101614.59;4987404;28;20859;-71
2022/10/05 03:58:31;;;;;;;9.53;6.70;;;;;;;12.09;94.91;101618.09;5004513;28;20210;-72
2022/10/05 04:01:03;;;;;;;13.13;7.30;;;;;;;12.11;95.06;101611.28;4994530;28;20216;-72
2022/10/05 04:03:34;;;;;;;10.43;7.30;;;;;;;12.13;94.75;101605.38;4997933;28;20188;-71
2022/10/05 04:06:13;;;;;;;8.07;6.70;;;;;;;12.13;94.62;101600.22;4990100;28;20196;-71
2022/10/05 04:08:53;;;;;;;10.13;7.07;;;;;;;12.15;95.12;101595.13;5018288;28;20188;-71
2022/10/05 04:11:28;;;;;;;11.80;6.97;;;;;;;12.16;94.54;101597.75;5006410;28;20204;-70
2022/10/05 04:14:05;;;;;;;11.43;6.77;;;;;;;12.20;94.67;101603.81;4994005;28;20203;-71
2022/10/05 04:16:37;;;;;;;12.73;6.90;;;;;;;12.21;94.80;101595.31;5002376;28;20187;-71
2022/10/05 04:19:24;;;;;;;12.30;7.20;;;;;;;12.22;94.69;101597.91;5006658;28;20239;-71
2022/10/05 04:22:09;;;;;;;8.17;6.83;;;;;;;12.25;94.71;101597.09;5000323;28;20181;-71
2022/10/05 04:24:48;;;;;;;10.77;7.23;;;;;;;12.25;94.58;101585.16;4999759;28;20608;-71
2022/10/05 04:27:19;;;;;;;13.47;7.40;;;;;;;12.28;94.43;101599.75;5005226;28;20188;-71
2022/10/05 04:30:07;;;;;;;9.50;7.07;;;;;;;12.30;94.72;101604.09;5018424;28;20282;-72
2022/10/05 04:32:42;;;;;;;8.70;6.80;;;;;;;12.33;94.79;101598.16;4990183;28;20227;-72
2022/10/05 04:35:44;;;;;;;10.20;7.30;;;;;;;12.35;94.32;101591.38;4993413;28;20187;-71
2022/10/05 04:38:16;;;;;;;9.70;7.33;;;;;;;12.36;94.54;101608.53;4970203;28;20198;-72
2022/10/05 04:41:14;;;;;;;10.00;7.10;;;;;;;12.37;94.59;101602.56;4996530;28;20692;-71
2022/10/05 04:44:17;;;;;;;14.07;8.33;;;;;;;12.40;94.44;101603.47;4989268;28;20188;-72
2022/10/05 04:47:07;;;;;;;10.77;7.23;;;;;;;12.41;94.23;101604.38;4995695;28;20175;-72
2022/10/05 04:49:54;;;;;;;12.03;6.87;;;;;;;12.40;94.64;101598.34;4993452;28;20183;-71
2022/10/05 04:52:55;;;;;;;9.53;7.17;;;;;;;12.43;94.69;101593.28;5005525;28;20199;-70
2022/10/05 04:55:28;;;;;;;10.37;7.17;;;;;;;12.43;94.51;101587.28;4997764;28;20197;-71
2022/10/05 04:58:08;;;;;;;12.57;7.50;;;;;;;12.44;94.31;101577.03;4994483;28;20184;-72
2022/10/05 05:00:59;;;;;;;10.33;7.13;;;;;;;12.45;94.25;101577.94;5004429;28;20211;-69
2022/10/05 05:03:46;;;;;;;10.67;7.17;;;;;;;12.45;94.29;101575.34;4993435;28;20183;-72
2022/10/05 05:06:46;;;;;;;9.57;7.13;;;;;;;12.46;94.41;101577.09;4987106;28;20194;-71
2022/10/05 05:09:24;;;;;;;9.27;7.37;;;;;;;12.48;94.25;101576.28;4994574;28;20195;-72
2022/10/05 05:12:17;;;;;;;10.43;7.77;;;;;;;12.50;94.41;101584.88;4998555;28;20230;-72
2022/10/05 05:14:54;;;;;;;14.13;7.40;;;;;;;12.51;94.17;101578.94;4998014;28;20219;-71
2022/10/05 05:17:47;;;;;;;10.20;7.80;;;;;;;12.53;94.45;101586.69;4992171;28;20192;-71
2022/10/05 05:20:53;;;;;;;11.30;7.23;;;;;;;12.54;94.39;101575.56;5003329;28;20579;-71
2022/10/05 05:23:43;;;;;;;9.77;7.20;;;;;;;12.56;94.35;101579.03;4996678;28;20187;-71
2022/10/05 05:26:21;;;;;;;13.00;8.00;;;;;;;12.56;94.38;101585.06;5004936;28;20192;-71
2022/10/05 05:28:57;;;;;;;12.47;8.37;;;;;;;12.59;94.50;101586.81;4999339;28;20245;-71
2022/10/05 05:31:57;;;;;;;11.77;7.50;;;;;;;12.59;94.91;101585.09;4994533;28;20222;-72
2022/10/05 05:34:22;;;;;;;10.00;7.43;;;;;;;12.60;94.58;101581.72;4962971;28;20748;-70
2022/10/05 05:37:13;;;;;;;12.10;8.17;;;;;;;12.63;94.25;101580.91;4996566;28;20192;-70
2022/10/05 05:40:22;;;;;;;13.43;8.47;;;;;;;12.65;94.24;101585.25;4995451;28;20195;-72
2022/10/05 05:43:00;;;;;;;13.03;8.17;;;;;;;12.67;94.29;101578.44;5001913;28;20195;-71
2022/10/05 05:45:34;;;;;;;9.93;7.40;;;;;;;12.71;93.83;101581.94;4994414;28;20192;-72
2022/10/05 05:48:04;;;;;;;14.17;7.70;;;;;;;12.71;94.40;101580.25;4994463;28;20305;-71
2022/10/05 05:50:57;;;;;;;11.70;7.57;;;;;;;12.75;94.21;101579.50;4990946;28;20253;-71
2022/10/05 05:53:32;;;;;;;10.13;7.83;;;;;;;12.76;93.83;101570.94;4992382;28;20195;-71
2022/10/05 05:56:10;;;;;;;11.50;7.47;;;;;;;12.77;94.24;101577.81;4994342;28;20191;-70
2022/10/05 05:58:43;;;;;;;11.53;8.03;;;;;;;12.81;94.03;101578.78;4998161;28;20294;-70
2022/10/05 06:01:34;;;;;;;11.03;8.00;;;;;;;12.80;94.17;101577.88;5010085;28;20252;-71
2022/10/05 06:04:13;;;;;;;11.30;7.67;;;;;;;12.83;94.01;101567.69;5009854;28;20650;-72
2022/10/05 06:06:44;;;;;;;9.97;7.73;;;;;;;12.83;93.70;101572.81;5003866;28;20193;-71
2022/10/05 06:09:17;;;;;;;12.20;7.40;;;;;;;12.85;93.86;101567.69;4992532;28;20188;-70
2022/10/05 06:11:59;;;;;;;12.03;7.70;;;;;;;12.86;93.52;101560.03;4992620;28;20226;-71
2022/10/05 06:14:36;;;;;;;10.87;7.50;;;;;;;12.89;93.42;101562.66;4991809;28;20684;-71
2022/10/05 06:17:15;;;;;;;14.67;7.83;;;;;;;12.89;93.59;101556.66;5000484;28;20192;-71
2022/10/05 06:19:43;;;;;;;11.83;8.07;;;;;;;12.91;93.93;101558.41;4998832;28;20665;-71
2022/10/05 06:22:24;;;;;;;11.47;7.70;;;;;;;12.91;93.86;101558.41;4995111;28;20214;-72
2022/10/05 06:25:09;;;;;;;11.53;8.03;;;;;;;12.93;93.37;101562.75;5004548;28;20180;-72
2022/10/05 06:27:55;;;;;;;13.63;8.47;;;;;;;12.94;93.40;101555.91;5007237;28;20559;-71
2022/10/05 06:30:21;;;;;;;14.93;7.17;;;;;;;12.99;93.19;101552.63;5001259;28;20211;-72
2022/10/05 06:32:49;;;;;;;11.00;8.17;;;;;;;12.98;93.78;101556.88;5003558;28;20777;-72
2022/10/05 06:35:41;;;;;;;12.03;8.00;;;;;;;13.00;93.41;101560.38;4999913;28;20223;-72
2022/10/05 06:38:16;;;;;;;12.00;8.03;;;;;;;13.04;93.09;101559.59;5005789;28;20266;-72
2022/10/05 06:41:06;;;;;;;12.60;8.40;;;;;;;13.05;93.37;101557.88;5007224;28;20203;-71
2022/10/05 06:43:42;;;;;;;8.50;6.83;;;;;;;13.15;93.77;101567.50;5001087;28;20219;-72
2022/10/05 06:46:35;;;;;;;10.23;7.10;;;;;;;13.28;92.89;101569.50;5006822;28;20183;-74
2022/10/05 06:49:48;;;;;;;11.43;7.80;;;;;;;13.33;92.85;101570.44;5006231;28;20203;-73
2022/10/05 06:53:16;;;;;;;11.60;7.93;;;;;;;13.39;91.78;101573.16;5017304;28;20209;-74
2022/10/05 06:55:55;;;;;;;10.73;7.87;;;;;;;13.44;91.88;101559.53;4974883;28;20199;-71
2022/10/05 06:58:29;;;;;;;11.00;7.40;;;;;;;13.45;91.46;101566.41;5002750;28;20294;-70
2022/10/05 07:01:09;;;;;;;12.27;7.73;;;;;;;13.46;92.00;101567.28;5002015;28;20219;-71
2022/10/05 07:03:47;;;;;;;8.90;6.90;;;;;;;13.50;92.14;101564.81;4944592;28;20211;-70
2022/10/05 07:06:20;;;;;;;7.87;7.07;;;;;;;13.56;91.80;101561.47;5000696;28;20184;-69
2022/10/05 07:08:51;;;;;;;11.47;7.33;;;;;;;13.58;91.09;101555.50;4999120;28;20191;-71
2022/10/05 07:11:44;;;;;;;11.03;7.10;;;;;;;13.53;91.63;101558.88;4988623;28;20227;-71
2022/10/05 07:14:10;;;;;;;11.40;7.83;;;;;;;13.54;92.33;101558.88;4996148;28;20190;-71
2022/10/05 07:16:55;;;;;;;10.47;7.50;;;;;;;13.59;92.02;101552.13;5001776;28;20199;-71
2022/10/05 07:19:26;;;;;;;9.20;7.53;;;;;;;13.64;91.69;101559.91;4997312;28;20203;-71
2022/10/05 07:22:11;;;;;;;11.07;6.77;;;;;;;13.70;91.58;101562.59;4993330;28;20193;-71
2022/10/05 07:24:57;;;;;;;8.17;7.37;;;;;;;13.72;91.42;101555.78;4998499;28;20190;-70
2022/10/05 07:27:26;;;;;;;10.20;7.10;;;;;;;13.76;91.06;101568.72;4984543;28;20239;-71
2022/10/05 07:30:02;;;;;;;12.97;7.53;;;;;;;13.79;91.43;101553.34;4989378;28;20211;-69
2022/10/05 07:32:38;;;;;;;9.17;7.00;;;;;;;13.85;91.45;101562.88;5014613;28;20195;-71
2022/10/05 07:38:31;;;;;;;9.70;7.00;;;;;;;13.98;90.90;101544.22;4995878;28;20235;-70
2022/10/05 07:41:05;;;;;;;7.93;6.63;;;;;;;14.01;91.12;101546.84;5001153;28;20214;-70
2022/10/05 07:43:35;;;;;;;11.23;7.13;;;;;;;14.03;90.27;101540.88;4994372;28;20262;-70
2022/10/05 07:46:04;;;;;;;9.97;6.70;;;;;;;14.09;90.43;101545.28;4996840;28;20192;-71
2022/10/05 07:48:48;;;;;;;11.53;6.80;;;;;;;14.16;89.88;101549.66;4990804;28;20192;-70
2022/10/05 07:51:40;;;;;;;10.37;6.60;;;;;;;14.23;89.97;101544.66;4995567;28;20210;-70
2022/10/05 07:54:12;;;;;;;8.00;6.20;;;;;;;14.30;90.40;101540.47;4998264;28;20212;-70
2022/10/05 07:56:42;;;;;;;10.03;6.50;;;;;;;14.27;90.02;101551.59;4992451;28;20188;-70
2022/10/05 07:59:25;;;;;;;12.03;7.30;;;;;;;14.31;89.47;101548.25;5010246;28;20628;-70
2022/10/05 08:02:03;;;;;;;8.67;6.30;;;;;;;14.35;89.64;101550.03;4993768;28;20717;-71
2022/10/05 08:04:45;;;;;;;10.00;6.90;;;;;;;14.36;89.32;101548.31;4999949;28;20594;-69
2022/10/05 08:07:15;;;;;;;8.33;6.47;;;;;;;14.37;89.07;101548.31;5014086;28;20195;-70
2022/10/05 08:09:49;;;;;;;11.57;7.53;;;;;;;14.36;89.73;101562.06;4997205;28;20218;-69
2022/10/05 08:12:22;;;;;;;11.83;6.87;;;;;;;14.37;89.58;101561.22;4991680;28;20576;-70
2022/10/05 08:15:12;;;;;;;9.30;6.53;;;;;;;14.39;90.14;101559.53;4998614;28;20598;-71
2022/10/05 08:17:56;;;;;;;10.03;6.37;;;;;;;14.43;89.81;101566.47;4997215;28;20187;-72
2022/10/05 08:20:36;;;;;;;10.40;6.77;;;;;;;14.44;89.47;101563.06;4997284;28;20227;-71
2022/10/05 08:23:17;;;;;;;11.47;7.13;;;;;;;14.52;89.78;101558.00;4998568;28;20273;-70
2022/10/05 08:26:27;;;;;;;9.23;6.90;;;;;;;14.53;89.32;101560.63;5003978;28;20187;-71
2022/10/05 08:29:23;;;;;;;8.03;6.73;;;;;;;14.56;89.24;101565.81;4964889;28;20206;-70
2022/10/05 08:31:54;;;;;;;9.60;6.77;;;;;;;14.59;89.96;101552.97;4987365;28;20299;-70
2022/10/05 08:34:38;;;;;;;8.53;6.53;;;;;;;14.68;89.27;101555.66;5000702;28;20562;-70
2022/10/05 08:37:13;;;;;;;9.97;7.00;;;;;;;14.74;88.79;101557.47;4997201;28;20219;-70
2022/10/05 08:39:41;;;;;;;9.57;6.63;;;;;;;14.84;88.62;101552.47;5004464;28;20222;-70
2022/10/05 08:42:24;;;;;;;9.90;6.60;;;;;;;14.92;88.32;101544.84;4992753;28;20699;-71
2022/10/05 08:44:58;;;;;;;10.83;6.73;;;;;;;15.00;87.85;101550.94;4987514;28;20194;-70
2022/10/05 08:47:44;;;;;;;10.73;6.83;;;;;;;15.09;87.63;101551.06;4994682;28;20187;-70
2022/10/05 08:50:42;;;;;;;8.93;6.97;;;;;;;15.12;87.20;101549.41;5000362;28;20258;-71
2022/10/05 08:53:32;;;;;;;8.60;6.90;;;;;;;15.18;87.46;101556.31;4991912;28;20207;-71
2022/10/05 08:56:06;;;;;;;12.27;6.77;;;;;;;15.24;87.49;101562.44;4985150;28;20188;-71
2022/10/05 08:58:52;;;;;;;15.47;6.53;;;;;;;15.31;86.56;101556.50;4991056;28;20674;-71
2022/10/05 09:01:29;;;;;;;10.80;6.93;;;;;;;15.27;86.86;101562.47;4989596;28;20202;-71
2022/10/05 09:04:09;;;;;;;10.63;6.07;;;;;;;15.35;86.10;101557.44;4986105;28;20584;-71
2022/10/05 09:06:53;;;;;;;10.20;6.73;;;;;;;15.51;85.42;101552.47;4997205;28;20201;-70
2022/10/05 09:09:47;;;;;;;10.03;6.27;;;;;;;15.60;84.86;101559.41;4990947;28;20832;-71
2022/10/05 09:12:36;;;;;;;8.97;6.23;;;;;;;15.75;84.41;101557.88;4995782;28;20215;-71
2022/10/05 09:15:44;;;;;;;8.80;6.47;;;;;;;15.77;83.86;101558.75;4995053;28;20236;-71
2022/10/05 09:18:37;;;;;;;8.00;5.90;;;;;;;15.87;84.25;101552.84;4994502;28;20203;-71
2022/10/05 09:21:18;;;;;;;8.03;5.70;;;;;;;15.94;83.07;101554.59;5000431;28;20293;-71
2022/10/05 09:23:47;;;;;;;8.33;5.97;;;;;;;15.93;81.77;101549.44;4985522;28;20218;-70
2022/10/05 09:26:41;;;;;;;6.70;5.47;;;;;;;16.01;81.46;101548.66;4988344;28;20661;-71
2022/10/05 09:29:40;;;;;;;8.27;5.47;;;;;;;16.01;80.76;101552.94;5000647;28;20245;-71
2022/10/05 09:32:26;;;;;;;8.33;5.43;;;;;;;16.02;80.38;101547.78;4977787;28;20218;-70
2022/10/05 09:35:04;;;;;;;8.23;6.07;;;;;;;16.05;80.11;101553.00;4992292;28;20677;-70
2022/10/05 09:37:47;;;;;;;6.37;5.23;;;;;;;16.09;80.58;101546.13;4984055;28;20199;-71
2022/10/05 09:40:27;;;;;;;7.87;4.87;;;;;;;16.16;81.05;101542.75;4990957;28;20204;-71
2022/10/05 09:43:19;;;;;;;9.27;5.30;;;;;;;16.15;79.96;101541.00;4997011;28;20196;-70
2022/10/05 09:46:26;;;;;;;6.33;4.90;;;;;;;16.22;80.07;101542.78;4988573;28;20739;-71
2022/10/05 09:49:11;;;;;;;7.50;5.30;;;;;;;16.19;79.52;101537.59;4988320;28;20199;-71
2022/10/05 09:52:10;;;;;;;8.97;5.23;;;;;;;16.20;79.42;101526.41;4992492;28;20612;-72
2022/10/05 09:55:01;;;;;;;8.20;5.10;;;;;;;16.24;79.59;101530.72;4993548;28;20195;-71
2022/10/05 09:57:35;;;;;;;8.77;5.17;;;;;;;16.27;78.92;101530.75;4994043;28;20571;-71
2022/10/05 10:00:20;;;;;;;6.57;5.10;;;;;;;16.29;78.49;101519.59;4990675;28;20643;-71
2022/10/05 10:03:23;;;;;;;8.50;5.90;;;;;;;16.27;78.48;101526.47;4989661;28;20657;-71
2022/10/05 10:06:04;;;;;;;6.93;5.27;;;;;;;16.31;78.83;101523.03;4993950;28;20192;-69
2022/10/05 10:08:51;;;;;;;7.87;4.80;;;;;;;16.39;79.11;101512.78;4998213;28;20602;-71
2022/10/05 10:11:48;;;;;;;9.43;5.47;;;;;;;16.37;79.05;101506.72;4992115;28;20204;-70
2022/10/05 10:14:16;;;;;;;8.17;5.30;;;;;;;16.37;78.65;101502.41;4996653;28;20191;-71
2022/10/05 10:16:48;;;;;;;8.23;4.90;;;;;;;16.35;79.25;101509.28;4994081;28;20210;-70
2022/10/05 10:19:32;;;;;;;6.80;4.73;;;;;;;16.34;79.30;101506.72;4999547;28;20186;-71
2022/10/05 10:22:34;;;;;;;6.13;4.87;;;;;;;16.42;78.75;101505.03;4990076;28;20556;-70
2022/10/05 10:25:03;;;;;;;5.93;5.00;;;;;;;16.38;78.71;101504.13;4992417;28;20206;-71
2022/10/05 10:28:17;;;;;;;7.33;5.57;;;;;;;16.31;78.27;101498.91;4995799;28;20194;-71
2022/10/05 10:30:55;;;;;;;6.87;5.57;;;;;;;16.37;78.50;101506.72;4986570;28;20299;-71
2022/10/05 10:34:02;;;;;;;9.23;5.57;;;;;;;16.42;78.20;101505.94;4992940;28;20214;-70
2022/10/05 10:36:39;;;;;;;7.53;5.00;;;;;;;16.43;77.04;101497.31;4993681;28;20237;-72
2022/10/05 10:39:13;;;;;;;7.10;5.13;;;;;;;16.53;77.06;101499.09;4992162;28;20287;-70
2022/10/05 10:41:38;;;;;;;5.90;4.70;;;;;;;16.56;78.06;101496.53;4991510;28;20756;-70
2022/10/05 10:44:12;;;;;;;8.53;5.27;;;;;;;16.62;76.99;101493.97;4990122;28;20191;-71
2022/10/05 10:46:44;;;;;;;7.83;4.87;;;;;;;16.70;76.13;101491.41;4994377;28;20219;-71
2022/10/05 10:49:31;;;;;;;8.03;5.43;;;;;;;16.67;76.77;101499.19;5006089;28;20188;-71
2022/10/05 10:52:27;;;;;;;7.87;5.37;;;;;;;16.59;76.63;101496.56;4995318;28;20210;-71
2022/10/05 10:55:26;;;;;;;6.00;5.00;;;;;;;16.60;76.44;101500.00;4993865;28;20199;-69
2022/10/05 10:58:29;;;;;;;5.17;4.67;;;;;;;16.80;76.96;101498.38;5001663;28;20259;-71
2022/10/05 11:01:29;;;;;;;7.47;5.67;;;;;;;16.89;75.63;101490.63;4992291;28;20219;-71
2022/10/05 11:04:32;;;;;;;5.60;4.90;;;;;;;16.74;75.21;101494.03;4979641;28;20298;-70
2022/10/05 11:07:03;;;;;;;7.33;4.87;;;;;;;16.93;74.70;101487.22;5003354;28;20199;-71
2022/10/05 11:09:38;;;;;;;5.63;5.07;;;;;;;16.87;74.62;101487.19;4990691;28;20187;-71
2022/10/05 11:12:28;;;;;;;7.53;4.63;;;;;;;16.92;73.65;101499.31;4999201;28;20676;-71
2022/10/05 11:15:06;;;;;;;6.57;4.87;;;;;;;17.03;72.57;101478.59;5001692;28;20235;-70
2022/10/05 11:18:06;;;;;;;9.37;4.97;;;;;;;17.26;72.68;101472.66;4991841;28;20187;-71
2022/10/05 11:21:09;;;;;;;5.87;4.87;;;;;;;17.24;71.72;101465.75;4997403;28;20575;-70
2022/10/05 11:24:13;;;;;;;5.13;4.33;;;;;;;17.20;72.03;101462.28;4995822;28;20640;-71
2022/10/05 11:27:01;;;;;;;5.00;4.47;;;;;;;17.36;72.81;101455.44;4962110;28;20560;-71
2022/10/05 11:29:38;;;;;;;4.83;4.07;;;;;;;17.06;71.61;101458.81;4994433;28;20187;-71
2022/10/05 11:32:28;;;;;;;6.70;4.70;;;;;;;17.09;72.11;101456.19;5001950;28;20195;-71
2022/10/05 11:35:27;;;;;;;4.93;4.40;;;;;;;17.23;72.18;101466.63;4969524;28;20204;-72
2022/10/05 11:38:04;;;;;;;5.27;4.20;;;;;;;17.87;70.53;101453.75;4997754;28;20196;-71
2022/10/05 11:40:44;;;;;;;5.10;4.10;;;;;;;21.57;58.60;101442.16;4998269;28;20695;-71
2022/10/05 11:43:30;;;;;;;5.23;3.67;;;;;;;18.51;65.73;101455.41;5001733;28;20230;-72
2022/10/05 11:46:07;;;;;;;5.90;4.20;;;;;;;18.20;65.26;101453.69;4996182;28;20279;-71
2022/10/05 11:48:47;;;;;;;6.63;4.30;;;;;;;17.64;67.82;101457.22;4997553;28;20187;-72
2022/10/05 11:51:53;;;;;;;5.43;4.40;;;;;;;17.65;68.77;101453.75;5001395;28;20684;-71
2022/10/05 11:54:47;;;;;;;4.70;4.27;;;;;;;17.88;67.78;101449.44;4999490;28;20618;-69
2022/10/05 11:57:22;;;;;;;6.43;3.90;;;;;;;18.15;68.29;101432.09;5001912;28;20252;-72
2022/10/05 12:00:10;;;;;;;4.00;3.60;;;;;;;18.23;66.60;101439.91;4996898;28;20357;-72
2022/10/05 12:03:08;;;;;;;4.67;4.20;;;;;;;23.96;51.20;101408.44;4998429;28;20252;-72
2022/10/05 12:06:14;;;;;;;3.47;2.80;;;;;;;24.25;48.21;101392.78;4996758;28;20245;-71
2022/10/05 12:08:46;;;;;;;4.07;3.03;;;;;;;26.18;44.21;101388.38;4992739;28;20203;-70
2022/10/05 12:11:42;;;;;;;3.90;3.45;;;;;;;23.94;46.63;101391.88;4996433;28;20216;-71
2022/10/05 12:14:32;;;;;;;5.10;3.30;;;;;;;26.51;41.58;101378.38;4996031;28;20188;-72
2022/10/05 12:17:41;;;;;;;8.23;3.65;;;;;;;22.01;51.56;101397.94;4996294;28;20210;-71
2022/10/05 12:20:14;;;;;;;5.37;3.90;;;;;;;20.59;56.17;101395.78;5008863;28;20242;-71
2022/10/05 12:23:10;;;;;;;4.00;3.60;;;;;;;20.10;57.73;101399.84;4996337;28;20557;-71
2022/10/05 12:25:43;;;;;;;3.90;3.50;;;;;;;23.63;48.90;101380.50;4974396;28;20217;-72
2022/10/05 12:28:13;;;;;;;6.27;3.53;;;;;;;22.13;52.50;101389.91;4992001;28;20187;-72
2022/10/05 12:30:57;;;;;;;5.13;3.53;;;;;;;20.91;55.95;101383.22;5004224;28;20221;-72
2022/10/05 12:33:34;;;;;;;4.33;3.93;;;;;;;21.63;54.50;101387.31;5000961;28;20221;-71